createdAt,value
2019-04-16T00:00:19.965Z,1014.76
2019-04-16T00:01:19.978Z,1014.76
2019-04-16T00:02:19.988Z,1014.75
2019-04-16T00:03:20.303Z,1014.75
2019-04-16T00:04:22.285Z,1014.76
2019-04-16T00:05:20.028Z,1014.72
2019-04-16T00:06:20.051Z,1014.73
2019-04-16T00:07:20.075Z,1014.65
2019-04-16T00:08:27.705Z,1014.67
2019-04-16T00:09:20.097Z,1014.65
2019-04-16T00:10:20.096Z,1014.66
2019-04-16T00:11:20.113Z,1014.68
2019-04-16T00:12:20.124Z,1014.70
2019-04-16T00:13:20.151Z,1014.66
2019-04-16T00:14:20.151Z,1014.65
2019-04-16T00:15:20.165Z,1014.64
2019-04-16T00:16:20.176Z,1014.63
2019-04-16T00:17:20.203Z,1014.64
2019-04-16T00:18:20.211Z,1014.58
2019-04-16T00:19:20.227Z,1014.60
2019-04-16T00:20:20.230Z,1014.55
2019-04-16T00:21:20.244Z,1014.56
2019-04-16T00:22:20.265Z,1014.58
2019-04-16T00:23:20.300Z,1014.53
2019-04-16T00:24:20.288Z,1014.52
2019-04-16T00:25:20.296Z,1014.53
2019-04-16T00:26:20.316Z,1014.52
2019-04-16T00:27:20.330Z,1014.52
2019-04-16T00:28:20.344Z,1014.53
2019-04-16T00:29:20.360Z,1014.45
2019-04-16T00:30:20.363Z,1014.48
2019-04-16T00:31:20.378Z,1014.46
2019-04-16T00:32:20.399Z,1014.45
2019-04-16T00:33:20.408Z,1014.46
2019-04-16T00:34:20.422Z,1014.44
2019-04-16T00:35:20.430Z,1014.47
2019-04-16T00:36:20.443Z,1014.43
2019-04-16T00:37:21.262Z,1014.44
2019-04-16T00:38:22.649Z,1014.45
2019-04-16T00:39:24.491Z,1014.47
2019-04-16T00:40:20.497Z,1014.49
2019-04-16T00:41:20.521Z,1014.46
2019-04-16T00:42:20.530Z,1014.48
2019-04-16T00:43:20.537Z,1014.52
2019-04-16T00:44:20.556Z,1014.46
2019-04-16T00:45:20.561Z,1014.46
2019-04-16T00:46:20.582Z,1014.45
2019-04-16T00:47:20.587Z,1014.44
2019-04-16T00:48:20.607Z,1014.44
2019-04-16T00:49:20.617Z,1014.45
2019-04-16T00:50:20.629Z,1014.43
2019-04-16T00:51:20.642Z,1014.42
2019-04-16T00:52:20.655Z,1014.44
2019-04-16T00:53:20.666Z,1014.42
2019-04-16T00:54:20.684Z,1014.46
2019-04-16T00:55:20.716Z,1014.43
2019-04-16T00:56:20.714Z,1014.43
2019-04-16T00:57:20.732Z,1014.37
2019-04-16T00:58:20.734Z,1014.40
2019-04-16T00:59:21.310Z,1014.40
2019-04-16T01:00:20.761Z,1014.33
2019-04-16T01:01:20.838Z,1014.35
2019-04-16T01:02:20.793Z,1014.34
2019-04-16T01:03:20.801Z,1014.35
2019-04-16T01:04:20.814Z,1014.36
2019-04-16T01:05:20.825Z,1014.33
2019-04-16T01:06:20.841Z,1014.34
2019-04-16T01:07:20.856Z,1014.33
2019-04-16T01:08:20.866Z,1014.38
2019-04-16T01:09:20.879Z,1014.36
2019-04-16T01:10:20.892Z,1014.36
2019-04-16T01:11:20.913Z,1014.35
2019-04-16T01:12:20.916Z,1014.35
2019-04-16T01:13:21.703Z,1014.32
2019-04-16T01:14:20.950Z,1014.29
2019-04-16T01:15:20.959Z,1014.33
2019-04-16T01:16:21.018Z,1014.28
2019-04-16T01:17:20.984Z,1014.25
2019-04-16T01:18:20.998Z,1014.29
2019-04-16T01:19:21.272Z,1014.28
2019-04-16T01:20:21.030Z,1014.23
2019-04-16T01:21:21.041Z,1014.22
2019-04-16T01:22:21.054Z,1014.21
2019-04-16T01:23:21.070Z,1014.22
2019-04-16T01:24:21.221Z,1014.21
2019-04-16T01:25:23.293Z,1014.20
2019-04-16T01:26:21.104Z,1014.15
2019-04-16T01:27:21.114Z,1014.13
2019-04-16T01:28:21.124Z,1014.13
2019-04-16T01:29:21.144Z,1014.13
2019-04-16T01:30:21.154Z,1014.18
2019-04-16T01:31:21.174Z,1014.16
2019-04-16T01:32:21.179Z,1014.15
2019-04-16T01:33:21.191Z,1014.14
2019-04-16T01:34:21.204Z,1014.12
2019-04-16T01:35:21.235Z,1014.14
2019-04-16T01:36:22.821Z,1014.15
2019-04-16T01:37:25.536Z,1014.14
2019-04-16T01:38:21.266Z,1014.13
2019-04-16T01:39:21.279Z,1014.10
2019-04-16T01:40:21.281Z,1014.12
2019-04-16T01:41:22.065Z,1014.16
2019-04-16T01:42:23.686Z,1014.12
2019-04-16T01:43:25.482Z,1014.13
2019-04-16T01:44:21.336Z,1014.09
2019-04-16T01:45:21.350Z,1014.08
2019-04-16T01:46:21.372Z,1014.09
2019-04-16T01:47:21.429Z,1014.11
2019-04-16T01:48:21.390Z,1014.13
2019-04-16T01:49:21.408Z,1014.10
2019-04-16T01:50:21.413Z,1014.10
2019-04-16T01:51:21.429Z,1014.09
2019-04-16T01:52:21.440Z,1014.09
2019-04-16T01:53:21.701Z,1014.06
2019-04-16T01:54:22.919Z,1014.08
2019-04-16T01:55:25.516Z,1014.04
2019-04-16T01:56:21.494Z,1014.03
2019-04-16T01:57:21.510Z,1014.02
2019-04-16T01:58:21.517Z,1014.05
2019-04-16T01:59:21.537Z,1014.02
2019-04-16T02:00:21.544Z,1014.01
2019-04-16T02:01:21.561Z,1013.99
2019-04-16T02:02:21.569Z,1014.01
2019-04-16T02:03:21.584Z,1014.04
2019-04-16T02:04:21.603Z,1013.99
2019-04-16T02:05:23.215Z,1013.98
2019-04-16T02:06:25.615Z,1013.97
2019-04-16T02:07:21.638Z,1013.98
2019-04-16T02:08:21.657Z,1013.97
2019-04-16T02:09:22.921Z,1013.98
2019-04-16T02:10:21.673Z,1013.98
2019-04-16T02:11:21.689Z,1013.98
2019-04-16T02:12:21.700Z,1013.94
2019-04-16T02:13:21.714Z,1013.99
2019-04-16T02:14:22.391Z,1013.94
2019-04-16T02:15:22.452Z,1013.98
2019-04-16T02:16:22.406Z,1013.95
2019-04-16T02:17:26.735Z,1013.91
2019-04-16T02:18:21.778Z,1013.96
2019-04-16T02:19:21.800Z,1013.93
2019-04-16T02:20:21.813Z,1013.93
2019-04-16T02:21:21.820Z,1013.94
2019-04-16T02:22:21.827Z,1013.90
2019-04-16T02:23:21.844Z,1013.92
2019-04-16T02:24:21.855Z,1013.89
2019-04-16T02:25:21.872Z,1013.90
2019-04-16T02:26:23.414Z,1013.91
2019-04-16T02:27:23.501Z,1013.92
2019-04-16T02:28:22.068Z,1013.89
2019-04-16T02:29:21.919Z,1013.85
2019-04-16T02:30:21.929Z,1013.87
2019-04-16T02:31:21.943Z,1013.89
2019-04-16T02:32:21.959Z,1013.89
2019-04-16T02:33:21.966Z,1013.88
2019-04-16T02:34:21.997Z,1013.85
2019-04-16T02:35:22.007Z,1013.86
2019-04-16T02:36:22.010Z,1013.86
2019-04-16T02:37:22.027Z,1013.81
2019-04-16T02:38:22.046Z,1013.86
2019-04-16T02:39:25.754Z,1013.85
2019-04-16T02:40:22.070Z,1013.81
2019-04-16T02:41:23.373Z,1013.84
2019-04-16T02:42:22.080Z,1013.82
2019-04-16T02:43:22.103Z,1013.77
2019-04-16T02:44:22.110Z,1013.81
2019-04-16T02:45:23.654Z,1013.83
2019-04-16T02:46:22.137Z,1013.84
2019-04-16T02:47:22.151Z,1013.80
2019-04-16T02:48:22.168Z,1013.81
2019-04-16T02:49:24.513Z,1013.80
2019-04-16T02:50:22.190Z,1013.84
2019-04-16T02:51:22.202Z,1013.83
2019-04-16T02:52:22.212Z,1013.77
2019-04-16T02:53:24.543Z,1013.79
2019-04-16T02:54:22.247Z,1013.80
2019-04-16T02:55:22.253Z,1013.76
2019-04-16T02:56:22.265Z,1013.79
2019-04-16T02:57:25.819Z,1013.78
2019-04-16T02:58:22.293Z,1013.78
2019-04-16T02:59:22.315Z,1013.77
2019-04-16T03:00:22.312Z,1013.74
2019-04-16T03:01:22.328Z,1013.71
2019-04-16T03:02:23.121Z,1013.73
2019-04-16T03:03:24.868Z,1013.69
2019-04-16T03:04:26.689Z,1013.72
2019-04-16T03:05:22.378Z,1013.71
2019-04-16T03:06:22.388Z,1013.67
2019-04-16T03:07:22.409Z,1013.65
2019-04-16T03:08:22.420Z,1013.64
2019-04-16T03:09:22.424Z,1013.63
2019-04-16T03:10:22.438Z,1013.61
2019-04-16T03:11:22.461Z,1013.60
2019-04-16T03:12:22.469Z,1013.56
2019-04-16T03:13:23.267Z,1013.60
2019-04-16T03:14:22.491Z,1013.49
2019-04-16T03:15:22.511Z,1013.56
2019-04-16T03:16:22.518Z,1013.52
2019-04-16T03:17:22.547Z,1013.50
2019-04-16T03:18:22.540Z,1013.46
2019-04-16T03:19:22.602Z,1013.52
2019-04-16T03:20:23.889Z,1013.49
2019-04-16T03:21:24.579Z,1013.48
2019-04-16T03:22:22.591Z,1013.47
2019-04-16T03:23:22.605Z,1013.44
2019-04-16T03:24:22.622Z,1013.47
2019-04-16T03:25:22.667Z,1013.47
2019-04-16T03:26:22.640Z,1013.46
2019-04-16T03:27:23.023Z,1013.45
2019-04-16T03:28:23.506Z,1013.44
2019-04-16T03:29:22.678Z,1013.46
2019-04-16T03:30:22.697Z,1013.46
2019-04-16T03:31:23.668Z,1013.39
2019-04-16T03:32:22.729Z,1013.41
2019-04-16T03:33:22.741Z,1013.41
2019-04-16T03:34:22.740Z,1013.41
2019-04-16T03:35:26.359Z,1013.35
2019-04-16T03:36:22.773Z,1013.38
2019-04-16T03:37:22.781Z,1013.38
2019-04-16T03:38:22.796Z,1013.37
2019-04-16T03:39:22.812Z,1013.33
2019-04-16T03:40:25.591Z,1013.29
2019-04-16T03:41:25.019Z,1013.29
2019-04-16T03:42:24.497Z,1013.32
2019-04-16T03:43:22.854Z,1013.27
2019-04-16T03:44:22.872Z,1013.28
2019-04-16T03:45:22.936Z,1013.25
2019-04-16T03:46:22.908Z,1013.20
2019-04-16T03:47:22.898Z,1013.20
2019-04-16T03:48:23.472Z,1013.20
2019-04-16T03:49:24.533Z,1013.20
2019-04-16T03:50:22.941Z,1013.24
2019-04-16T03:51:22.950Z,1013.25
2019-04-16T03:52:22.960Z,1013.23
2019-04-16T03:53:22.977Z,1013.21
2019-04-16T03:54:23.249Z,1013.20
2019-04-16T03:55:26.268Z,1013.20
2019-04-16T03:56:23.033Z,1013.21
2019-04-16T03:57:23.099Z,1013.16
2019-04-16T03:58:23.040Z,1013.19
2019-04-16T03:59:23.055Z,1013.15
2019-04-16T04:00:23.059Z,1013.15
2019-04-16T04:01:23.077Z,1013.16
2019-04-16T04:02:23.338Z,1013.14
2019-04-16T04:03:25.905Z,1013.14
2019-04-16T04:04:23.112Z,1013.16
2019-04-16T04:05:23.121Z,1013.11
2019-04-16T04:06:23.136Z,1013.14
2019-04-16T04:07:23.159Z,1013.12
2019-04-16T04:08:23.166Z,1013.11
2019-04-16T04:09:23.176Z,1013.12
2019-04-16T04:11:23.199Z,1013.12
2019-04-16T04:12:23.217Z,1013.10
2019-04-16T04:13:23.223Z,1013.09
2019-04-16T04:14:23.600Z,1013.11
2019-04-16T04:15:25.975Z,1013.13
2019-04-16T04:16:23.270Z,1013.12
2019-04-16T04:17:23.278Z,1013.15
2019-04-16T04:18:23.291Z,1013.14
2019-04-16T04:19:23.309Z,1013.13
2019-04-16T04:20:23.317Z,1013.16
2019-04-16T04:21:23.329Z,1013.22
2019-04-16T04:22:25.933Z,1013.19
2019-04-16T04:23:25.538Z,1013.20
2019-04-16T04:24:23.362Z,1013.22
2019-04-16T04:25:23.377Z,1013.20
2019-04-16T04:26:23.387Z,1013.20
2019-04-16T04:27:23.397Z,1013.17
2019-04-16T04:28:23.412Z,1013.22
2019-04-16T04:29:24.666Z,1013.22
2019-04-16T04:30:25.693Z,1013.21
2019-04-16T04:31:23.452Z,1013.22
2019-04-16T04:32:23.460Z,1013.22
2019-04-16T04:33:23.473Z,1013.24
2019-04-16T04:34:23.496Z,1013.21
2019-04-16T04:35:23.503Z,1013.22
2019-04-16T04:36:27.074Z,1013.23
2019-04-16T04:37:23.525Z,1013.21
2019-04-16T04:38:23.549Z,1013.21
2019-04-16T04:39:23.547Z,1013.23
2019-04-16T04:40:23.561Z,1013.15
2019-04-16T04:41:24.282Z,1013.17
2019-04-16T04:42:25.546Z,1013.16
2019-04-16T04:43:23.594Z,1013.20
2019-04-16T04:44:23.610Z,1013.18
2019-04-16T04:45:23.624Z,1013.21
2019-04-16T04:46:23.631Z,1013.20
2019-04-16T04:47:23.646Z,1013.20
2019-04-16T04:48:24.351Z,1013.21
2019-04-16T04:49:23.676Z,1013.21
2019-04-16T04:50:23.685Z,1013.21
2019-04-16T04:51:23.696Z,1013.14
2019-04-16T04:52:23.708Z,1013.20
2019-04-16T04:53:23.717Z,1013.17
2019-04-16T04:54:23.731Z,1013.20
2019-04-16T04:55:26.932Z,1013.18
2019-04-16T04:56:27.648Z,1013.20
2019-04-16T04:57:23.774Z,1013.22
2019-04-16T04:58:23.783Z,1013.18
2019-04-16T04:59:23.800Z,1013.20
2019-04-16T05:00:23.804Z,1013.23
2019-04-16T05:01:23.826Z,1013.21
2019-04-16T05:02:23.850Z,1013.21
2019-04-16T05:03:23.850Z,1013.22
2019-04-16T05:04:23.900Z,1013.19
2019-04-16T05:05:25.570Z,1013.23
2019-04-16T05:06:26.822Z,1013.21
2019-04-16T05:07:25.688Z,1013.25
2019-04-16T05:08:23.907Z,1013.24
2019-04-16T05:09:23.916Z,1013.26
2019-04-16T05:10:23.927Z,1013.27
2019-04-16T05:11:23.965Z,1013.25
2019-04-16T05:12:23.955Z,1013.28
2019-04-16T05:13:25.244Z,1013.22
2019-04-16T05:14:25.168Z,1013.24
2019-04-16T05:15:26.534Z,1013.24
2019-04-16T05:16:24.005Z,1013.22
2019-04-16T05:17:24.013Z,1013.22
2019-04-16T05:18:24.096Z,1013.16
2019-04-16T05:19:24.052Z,1013.21
2019-04-16T05:20:24.053Z,1013.24
2019-04-16T05:21:24.063Z,1013.25
2019-04-16T05:22:24.074Z,1013.25
2019-04-16T05:23:25.944Z,1013.25
2019-04-16T05:24:28.885Z,1013.25
2019-04-16T05:25:24.128Z,1013.30
2019-04-16T05:26:24.128Z,1013.27
2019-04-16T05:27:24.142Z,1013.33
2019-04-16T05:28:24.154Z,1013.30
2019-04-16T05:29:24.166Z,1013.35
2019-04-16T05:30:24.183Z,1013.31
2019-04-16T05:31:25.594Z,1013.30
2019-04-16T05:32:25.898Z,1013.36
2019-04-16T05:33:24.214Z,1013.32
2019-04-16T05:34:24.220Z,1013.36
2019-04-16T05:35:24.237Z,1013.37
2019-04-16T05:36:24.256Z,1013.37
2019-04-16T05:37:24.265Z,1013.34
2019-04-16T05:38:24.781Z,1013.36
2019-04-16T05:39:27.376Z,1013.39
2019-04-16T05:40:24.317Z,1013.33
2019-04-16T05:41:24.314Z,1013.33
2019-04-16T05:42:26.067Z,1013.38
2019-04-16T05:43:24.334Z,1013.39
2019-04-16T05:44:24.351Z,1013.35
2019-04-16T05:45:24.357Z,1013.38
2019-04-16T05:46:24.376Z,1013.36
2019-04-16T05:47:24.388Z,1013.45
2019-04-16T05:48:24.395Z,1013.46
2019-04-16T05:49:26.006Z,1013.44
2019-04-16T05:50:28.760Z,1013.48
2019-04-16T05:51:24.431Z,1013.45
2019-04-16T05:52:24.462Z,1013.45
2019-04-16T05:53:24.457Z,1013.45
2019-04-16T05:54:24.476Z,1013.43
2019-04-16T05:55:24.480Z,1013.49
2019-04-16T05:56:24.968Z,1013.49
2019-04-16T05:57:26.128Z,1013.44
2019-04-16T05:58:24.521Z,1013.42
2019-04-16T05:59:24.534Z,1013.39
2019-04-16T06:00:24.708Z,1013.44
2019-04-16T06:01:24.561Z,1013.46
2019-04-16T06:02:24.574Z,1013.50
2019-04-16T06:03:24.753Z,1013.47
2019-04-16T06:04:25.587Z,1013.50
2019-04-16T06:05:27.969Z,1013.48
2019-04-16T06:06:24.618Z,1013.47
2019-04-16T06:07:24.642Z,1013.44
2019-04-16T06:08:24.653Z,1013.42
2019-04-16T06:09:24.669Z,1013.43
2019-04-16T06:10:24.889Z,1013.41
2019-04-16T06:11:29.872Z,1013.39
2019-04-16T06:12:24.787Z,1013.42
2019-04-16T06:13:24.707Z,1013.43
2019-04-16T06:14:25.935Z,1013.39
2019-04-16T06:15:24.736Z,1013.40
2019-04-16T06:16:25.755Z,1013.43
2019-04-16T06:17:25.808Z,1013.36
2019-04-16T06:18:24.772Z,1013.43
2019-04-16T06:19:24.807Z,1013.41
2019-04-16T06:20:24.797Z,1013.38
2019-04-16T06:21:25.790Z,1013.38
2019-04-16T06:23:25.134Z,1013.43
2019-04-16T06:24:24.849Z,1013.44
2019-04-16T06:25:24.868Z,1013.40
2019-04-16T06:26:24.874Z,1013.41
2019-04-16T06:27:24.945Z,1013.43
2019-04-16T06:28:24.903Z,1013.40
2019-04-16T06:29:25.419Z,1013.41
2019-04-16T06:31:24.946Z,1013.36
2019-04-16T06:32:27.818Z,1013.35
2019-04-16T06:33:24.966Z,1013.39
2019-04-16T06:34:24.974Z,1013.35
2019-04-16T06:35:25.005Z,1013.35
2019-04-16T06:36:25.000Z,1013.38
2019-04-16T06:37:27.193Z,1013.36
2019-04-16T06:38:25.041Z,1013.34
2019-04-16T06:39:26.528Z,1013.41
2019-04-16T06:40:25.099Z,1013.36
2019-04-16T06:41:25.067Z,1013.39
2019-04-16T06:42:25.081Z,1013.40
2019-04-16T06:43:26.145Z,1013.36
2019-04-16T06:44:29.777Z,1013.35
2019-04-16T06:45:25.409Z,1013.38
2019-04-16T06:46:25.137Z,1013.35
2019-04-16T06:47:25.152Z,1013.42
2019-04-16T06:48:25.180Z,1013.39
2019-04-16T06:49:25.166Z,1013.43
2019-04-16T06:50:32.112Z,1013.37
2019-04-16T06:51:25.194Z,1013.37
2019-04-16T06:52:25.206Z,1013.38
2019-04-16T06:54:25.983Z,1013.41
2019-04-16T06:56:25.283Z,1013.39
2019-04-16T06:57:26.951Z,1013.41
2019-04-16T06:58:27.512Z,1013.38
2019-04-16T06:59:26.801Z,1013.38
2019-04-16T07:00:25.363Z,1013.41
2019-04-16T07:01:26.111Z,1013.38
2019-04-16T07:02:25.382Z,1013.35
2019-04-16T07:03:27.156Z,1013.38
2019-04-16T07:04:29.564Z,1013.35
2019-04-16T07:05:25.371Z,1013.33
2019-04-16T07:06:25.400Z,1013.38
2019-04-16T07:07:37.898Z,1013.34
2019-04-16T07:08:36.835Z,1013.35
2019-04-16T07:09:26.446Z,1013.35
2019-04-16T07:10:28.671Z,1013.33
2019-04-16T07:11:25.524Z,1013.29
2019-04-16T07:12:25.762Z,1013.30
2019-04-16T07:13:25.511Z,1013.27
2019-04-16T07:14:25.866Z,1013.32
2019-04-16T07:15:28.578Z,1013.29
2019-04-16T07:16:28.899Z,1013.30
2019-04-16T07:17:25.529Z,1013.28
2019-04-16T07:18:25.549Z,1013.30
2019-04-16T07:19:25.557Z,1013.28
2019-04-16T07:20:25.572Z,1013.31
2019-04-16T07:21:26.071Z,1013.32
2019-04-16T07:22:25.592Z,1013.28
2019-04-16T07:23:26.022Z,1013.30
2019-04-16T07:24:30.156Z,1013.30
2019-04-16T07:25:27.844Z,1013.30
2019-04-16T07:26:25.729Z,1013.31
2019-04-16T07:27:25.834Z,1013.30
2019-04-16T07:28:26.817Z,1013.29
2019-04-16T07:29:25.904Z,1013.27
2019-04-16T07:30:25.724Z,1013.30
2019-04-16T07:32:25.745Z,1013.34
2019-04-16T07:33:25.738Z,1013.34
2019-04-16T07:34:25.763Z,1013.35
2019-04-16T07:35:27.241Z,1013.37
2019-04-16T07:36:27.277Z,1013.36
2019-04-16T07:37:25.788Z,1013.35
2019-04-16T07:38:25.809Z,1013.34
2019-04-16T07:39:29.594Z,1013.35
2019-04-16T07:40:25.830Z,1013.37
2019-04-16T07:41:25.842Z,1013.31
2019-04-16T07:42:26.481Z,1013.30
2019-04-16T07:43:30.946Z,1013.32
2019-04-16T07:44:25.885Z,1013.33
2019-04-16T07:45:25.919Z,1013.28
2019-04-16T07:46:25.911Z,1013.28
2019-04-16T07:47:25.926Z,1013.24
2019-04-16T07:48:25.978Z,1013.25
2019-04-16T07:50:26.204Z,1013.22
2019-04-16T07:52:26.710Z,1013.27
2019-04-16T07:53:26.029Z,1013.24
2019-04-16T07:54:26.021Z,1013.24
2019-04-16T07:55:26.732Z,1013.24
2019-04-16T07:56:26.102Z,1013.25
2019-04-16T07:57:26.070Z,1013.24
2019-04-16T07:58:26.923Z,1013.25
2019-04-16T07:59:26.088Z,1013.26
2019-04-16T08:00:26.106Z,1013.25
2019-04-16T08:01:26.113Z,1013.24
2019-04-16T08:02:26.136Z,1013.24
2019-04-16T08:03:26.865Z,1013.22
2019-04-16T08:04:29.252Z,1013.29
2019-04-16T08:05:27.997Z,1013.18
2019-04-16T08:06:26.195Z,1013.17
2019-04-16T08:07:26.223Z,1013.18
2019-04-16T08:08:26.374Z,1013.18
2019-04-16T08:09:28.895Z,1013.19
2019-04-16T08:10:26.247Z,1013.16
2019-04-16T08:11:26.263Z,1013.18
2019-04-16T08:12:30.490Z,1013.15
2019-04-16T08:13:26.275Z,1013.18
2019-04-16T08:14:26.300Z,1013.21
2019-04-16T08:15:26.316Z,1013.16
2019-04-16T08:16:26.334Z,1013.15
2019-04-16T08:17:26.341Z,1013.20
2019-04-16T08:18:26.345Z,1013.11
2019-04-16T08:19:36.652Z,1013.14
2019-04-16T08:20:26.374Z,1013.12
2019-04-16T08:21:26.387Z,1013.12
2019-04-16T08:22:26.475Z,1013.09
2019-04-16T08:23:26.419Z,1013.12
2019-04-16T08:24:26.451Z,1013.09
2019-04-16T08:25:26.455Z,1013.10
2019-04-16T08:26:26.525Z,1013.09
2019-04-16T08:27:26.476Z,1013.09
2019-04-16T08:28:26.494Z,1013.11
2019-04-16T08:29:26.800Z,1013.07
2019-04-16T08:30:26.519Z,1013.09
2019-04-16T08:31:26.526Z,1013.10
2019-04-16T08:32:26.589Z,1013.03
2019-04-16T08:33:28.549Z,1013.06
2019-04-16T08:34:26.574Z,1013.02
2019-04-16T08:35:26.584Z,1013.04
2019-04-16T08:36:27.274Z,1013.02
2019-04-16T08:37:26.615Z,1013.08
2019-04-16T08:38:26.778Z,1013.03
2019-04-16T08:39:26.637Z,1013.03
2019-04-16T08:40:26.649Z,1012.98
2019-04-16T08:41:26.668Z,1012.96
2019-04-16T08:42:29.452Z,1012.96
2019-04-16T08:43:29.624Z,1012.93
2019-04-16T08:44:26.788Z,1012.93
2019-04-16T08:45:26.741Z,1012.93
2019-04-16T08:46:28.336Z,1012.88
2019-04-16T08:47:26.749Z,1012.91
2019-04-16T08:48:26.766Z,1012.81
2019-04-16T08:49:26.781Z,1012.86
2019-04-16T08:50:26.986Z,1012.88
2019-04-16T08:51:30.675Z,1012.86
2019-04-16T08:52:26.823Z,1012.91
2019-04-16T08:53:26.852Z,1012.85
2019-04-16T08:54:26.917Z,1012.87
2019-04-16T08:55:26.859Z,1012.91
2019-04-16T08:56:26.883Z,1012.89
2019-04-16T08:58:26.905Z,1012.82
2019-04-16T08:59:26.917Z,1012.84
2019-04-16T09:00:27.028Z,1012.82
2019-04-16T09:01:26.958Z,1012.79
2019-04-16T09:02:27.309Z,1012.80
2019-04-16T09:03:30.113Z,1012.79
2019-04-16T09:04:26.991Z,1012.77
2019-04-16T09:05:27.003Z,1012.77
2019-04-16T09:06:27.014Z,1012.79
2019-04-16T09:07:27.031Z,1012.79
2019-04-16T09:08:27.056Z,1012.79
2019-04-16T09:09:27.064Z,1012.78
2019-04-16T09:10:30.004Z,1012.77
2019-04-16T09:11:28.555Z,1012.74
2019-04-16T09:12:27.150Z,1012.78
2019-04-16T09:13:27.173Z,1012.72
2019-04-16T09:14:27.124Z,1012.74
2019-04-16T09:15:27.556Z,1012.69
2019-04-16T09:16:27.157Z,1012.75
2019-04-16T09:17:27.177Z,1012.71
2019-04-16T09:18:27.212Z,1012.76
2019-04-16T09:19:27.208Z,1012.72
2019-04-16T09:20:27.213Z,1012.75
2019-04-16T09:21:28.031Z,1012.76
2019-04-16T09:22:27.241Z,1012.72
2019-04-16T09:23:27.260Z,1012.70
2019-04-16T09:24:27.356Z,1012.72
2019-04-16T09:25:27.287Z,1012.71
2019-04-16T09:26:27.299Z,1012.73
2019-04-16T09:27:29.624Z,1012.73
2019-04-16T09:28:27.343Z,1012.71
2019-04-16T09:29:27.354Z,1012.72
2019-04-16T09:30:28.296Z,1012.71
2019-04-16T09:31:27.368Z,1012.76
2019-04-16T09:32:28.456Z,1012.77
2019-04-16T09:33:30.403Z,1012.74
2019-04-16T09:34:27.430Z,1012.76
2019-04-16T09:35:27.445Z,1012.74
2019-04-16T09:36:27.447Z,1012.72
2019-04-16T09:37:28.664Z,1012.78
2019-04-16T09:38:27.497Z,1012.73
2019-04-16T09:39:27.496Z,1012.81
2019-04-16T09:40:27.616Z,1012.80
2019-04-16T09:41:27.513Z,1012.79
2019-04-16T09:42:27.552Z,1012.79
2019-04-16T09:43:27.540Z,1012.76
2019-04-16T09:44:31.532Z,1012.77
2019-04-16T09:45:27.587Z,1012.74
2019-04-16T09:46:49.777Z,1012.75
2019-04-16T09:47:28.966Z,1012.73
2019-04-16T09:48:27.612Z,1012.74
2019-04-16T09:49:27.627Z,1012.74
2019-04-16T09:50:27.644Z,1012.79
2019-04-16T09:51:27.689Z,1012.80
2019-04-16T09:52:27.705Z,1012.79
2019-04-16T09:53:34.114Z,1012.78
2019-04-16T09:54:27.720Z,1012.79
2019-04-16T09:55:27.711Z,1012.77
2019-04-16T09:56:28.942Z,1012.78
2019-04-16T09:57:30.849Z,1012.78
2019-04-16T09:59:27.792Z,1012.79
2019-04-16T10:00:27.785Z,1012.78
2019-04-16T10:01:27.828Z,1012.76
2019-04-16T10:02:27.820Z,1012.74
2019-04-16T10:03:28.502Z,1012.73
2019-04-16T10:04:27.843Z,1012.68
2019-04-16T10:05:29.592Z,1012.65
2019-04-16T10:06:27.898Z,1012.71
2019-04-16T10:07:28.011Z,1012.65
2019-04-16T10:08:29.491Z,1012.72
2019-04-16T10:09:27.935Z,1012.69
2019-04-16T10:10:29.073Z,1012.65
2019-04-16T10:11:27.960Z,1012.64
2019-04-16T10:12:27.980Z,1012.66
2019-04-16T10:13:31.791Z,1012.62
2019-04-16T10:14:27.993Z,1012.61
2019-04-16T10:15:28.006Z,1012.55
2019-04-16T10:16:28.072Z,1012.60
2019-04-16T10:17:28.051Z,1012.58
2019-04-16T10:18:28.054Z,1012.57
2019-04-16T10:19:28.082Z,1012.58
2019-04-16T10:20:28.077Z,1012.51
2019-04-16T10:21:29.073Z,1012.50
2019-04-16T10:22:28.111Z,1012.52
2019-04-16T10:23:28.169Z,1012.51
2019-04-16T10:24:28.235Z,1012.52
2019-04-16T10:25:28.170Z,1012.45
2019-04-16T10:26:28.182Z,1012.52
2019-04-16T10:27:32.262Z,1012.52
2019-04-16T10:28:28.286Z,1012.47
2019-04-16T10:29:28.205Z,1012.47
2019-04-16T10:30:30.040Z,1012.47
2019-04-16T10:31:28.245Z,1012.41
2019-04-16T10:32:28.247Z,1012.41
2019-04-16T10:33:28.266Z,1012.42
2019-04-16T10:34:28.300Z,1012.42
2019-04-16T10:35:28.297Z,1012.35
2019-04-16T10:36:28.313Z,1012.35
2019-04-16T10:37:28.353Z,1012.29
2019-04-16T10:38:28.369Z,1012.30
2019-04-16T10:39:28.415Z,1012.31
2019-04-16T10:40:28.363Z,1012.26
2019-04-16T10:41:28.376Z,1012.28
2019-04-16T10:42:28.417Z,1012.22
2019-04-16T10:43:28.405Z,1012.26
2019-04-16T10:44:28.429Z,1012.23
2019-04-16T10:45:28.459Z,1012.21
2019-04-16T10:46:28.473Z,1012.23
2019-04-16T10:47:28.562Z,1012.24
2019-04-16T10:48:28.481Z,1012.31
2019-04-16T10:49:28.500Z,1012.27
2019-04-16T10:50:28.507Z,1012.31
2019-04-16T10:51:28.530Z,1012.27
2019-04-16T10:52:28.560Z,1012.28
2019-04-16T10:53:28.579Z,1012.31
2019-04-16T10:54:28.568Z,1012.24
2019-04-16T10:55:28.580Z,1012.22
2019-04-16T10:56:28.608Z,1012.22
2019-04-16T10:58:31.581Z,1012.21
2019-04-16T10:59:30.437Z,1012.18
2019-04-16T11:00:29.616Z,1012.20
2019-04-16T11:01:34.650Z,1012.17
2019-04-16T11:02:28.914Z,1012.12
2019-04-16T11:03:28.902Z,1012.15
2019-04-16T11:04:28.727Z,1012.18
2019-04-16T11:05:28.754Z,1012.18
2019-04-16T11:06:28.775Z,1012.15
2019-04-16T11:07:28.758Z,1012.13
2019-04-16T11:08:28.817Z,1012.15
2019-04-16T11:09:29.018Z,1012.12
2019-04-16T11:10:28.852Z,1012.13
2019-04-16T11:11:28.853Z,1012.07
2019-04-16T11:12:29.136Z,1012.05
2019-04-16T11:13:28.900Z,1012.01
2019-04-16T11:14:28.884Z,1012.03
2019-04-16T11:15:28.908Z,1012.10
2019-04-16T11:16:29.094Z,1012.02
2019-04-16T11:17:28.974Z,1012.06
2019-04-16T11:18:28.936Z,1012.10
2019-04-16T11:19:29.256Z,1012.04
2019-04-16T11:20:28.981Z,1012.01
2019-04-16T11:21:28.963Z,1012.03
2019-04-16T11:22:28.995Z,1012.05
2019-04-16T11:23:28.997Z,1012.02
2019-04-16T11:24:29.042Z,1012.06
2019-04-16T11:25:29.031Z,1012.06
2019-04-16T11:26:29.038Z,1012.06
2019-04-16T11:27:29.056Z,1012.04
2019-04-16T11:28:29.075Z,1012.02
2019-04-16T11:29:29.133Z,1012.01
2019-04-16T11:30:29.139Z,1012.00
2019-04-16T11:31:29.116Z,1012.03
2019-04-16T11:32:29.139Z,1012.03
2019-04-16T11:33:29.143Z,1011.99
2019-04-16T11:34:29.184Z,1011.96
2019-04-16T11:35:29.192Z,1012.06
2019-04-16T11:36:30.909Z,1012.05
2019-04-16T11:37:33.193Z,1012.02
2019-04-16T11:38:29.221Z,1012.05
2019-04-16T11:39:29.263Z,1012.04
2019-04-16T11:40:29.281Z,1011.99
2019-04-16T11:41:29.307Z,1012.02
2019-04-16T11:42:29.294Z,1011.97
2019-04-16T11:43:29.323Z,1011.95
2019-04-16T11:44:29.325Z,1011.96
2019-04-16T11:45:29.736Z,1011.95
2019-04-16T11:46:29.350Z,1012.02
2019-04-16T11:47:33.855Z,1012.01
2019-04-16T11:48:29.422Z,1012.00
2019-04-16T11:49:29.439Z,1012.00
2019-04-16T11:50:29.414Z,1011.97
2019-04-16T11:51:29.553Z,1012.01
2019-04-16T11:52:29.428Z,1012.01
2019-04-16T11:53:29.452Z,1012.02
2019-04-16T11:54:29.460Z,1012.03
2019-04-16T11:55:29.521Z,1011.99
2019-04-16T11:56:29.517Z,1011.93
2019-04-16T11:57:33.213Z,1011.99
2019-04-16T11:58:29.550Z,1011.93
2019-04-16T11:59:29.622Z,1011.93
2019-04-16T12:00:29.600Z,1011.97
2019-04-16T12:01:29.609Z,1011.94
2019-04-16T12:02:29.578Z,1012.00
2019-04-16T12:03:29.683Z,1012.00
2019-04-16T12:04:29.642Z,1011.96
2019-04-16T12:05:29.646Z,1011.95
2019-04-16T12:06:29.737Z,1011.93
2019-04-16T12:07:29.663Z,1011.95
2019-04-16T12:08:29.686Z,1011.97
2019-04-16T12:09:29.746Z,1011.99
2019-04-16T12:10:29.737Z,1011.99
2019-04-16T12:11:29.795Z,1012.01
2019-04-16T12:12:29.754Z,1012.02
2019-04-16T12:13:29.788Z,1012.00
2019-04-16T12:14:34.351Z,1011.97
2019-04-16T12:15:29.786Z,1011.99
2019-04-16T12:16:29.813Z,1012.00